PWSweather.com
Personal Weather Stations
Station Observations
KVAGLENALL
West Henrico, Glen Allen, VA 23060-6503

West HenricoGlen Allen, VA 23060-6503

Lat: 37.6554, Lon: -77.5693

Elevation: 273

Station Type: Davis Vantage Pro II

www.glenallenweather.com

High Low Average
Temperature 77.8°F25.4°C 56.4°F13.6°C 68.4°F20.2°C
Dew Point 64.8°F18.2°C 47.5°F8.6°C 55.0°F12.8°C
Winds 8.0 mph 12.9 kmh Calm Calm 3.0 mph SE4.8 kmh SE
Wind Gusts 14.1 mph22.7 kmh -- 6.0 mph9.7 kmh
Humidity 90% 41% 65%
Pressure 30.12 in1020.0 mb 29.82 in1009.8 mb -
Precipitation 0.00 in0.0 mm - -
Hour Temp Dew Point Humidity Winds Wind Gusts Pressure Precip Precip Rate Daily Precip Total
12:00 AM 69.1°F20.6°C 65.1°F18.4°C 87% 2.0 mph NNE3.2 kmh NNE 4.0 mph6.4 kmh 29.81 in1009.5 mb 0.00 in0.0 mm 0.00 in0.0 mm 0.00 in0.0 mm
01:00 AM 67.8°F19.9°C 64.8°F18.2°C 90% 2.0 mph NNE3.2 kmh NNE 7.1 mph11.4 kmh 29.82 in1009.8 mb 0.00 in0.0 mm 0.00 in0.0 mm 0.00 in0.0 mm
02:00 AM 66.6°F19.2°C 63.3°F17.4°C 89% 3.0 mph NE4.8 kmh NE 4.0 mph6.4 kmh 29.83 in1010.2 mb 0.00 in0.0 mm 0.00 in0.0 mm 0.00 in0.0 mm
03:00 AM 65.5°F18.6°C 62.2°F16.8°C 89% 6.0 mph ENE9.7 kmh ENE 9.1 mph14.6 kmh 29.85 in1010.8 mb 0.00 in0.0 mm 0.00 in0.0 mm 0.00 in0.0 mm
04:00 AM 64.5°F18.1°C 61.2°F16.2°C 89% 3.0 mph N4.8 kmh N 5.1 mph8.2 kmh 29.87 in1011.5 mb 0.00 in0.0 mm 0.00 in0.0 mm 0.00 in0.0 mm
05:00 AM 62.7°F17.1°C 59.4°F15.2°C 89% 4.0 mph NE6.4 kmh NE 5.1 mph8.2 kmh 29.88 in1011.9 mb 0.00 in0.0 mm 0.00 in0.0 mm 0.00 in0.0 mm
06:00 AM 60.5°F15.8°C 57.3°F14.1°C 89% 4.0 mph NNE6.4 kmh NNE 5.1 mph8.2 kmh 29.91 in1012.9 mb 0.00 in0.0 mm 0.00 in0.0 mm 0.00 in0.0 mm
07:00 AM 59.8°F15.4°C 55.6°F13.1°C 86% 2.0 mph NNE3.2 kmh NNE 3.0 mph4.8 kmh 29.93 in1013.5 mb 0.00 in0.0 mm 0.00 in0.0 mm 0.00 in0.0 mm
08:00 AM 62.4°F16.9°C 55.1°F12.8°C 77% 5.0 mph NNE8.0 kmh NNE 10.1 mph16.3 kmh 29.95 in1014.2 mb 0.00 in0.0 mm 0.00 in0.0 mm 0.00 in0.0 mm
09:00 AM 67.3°F19.6°C 56.8°F13.8°C 69% 2.0 mph NNE3.2 kmh NNE 5.1 mph8.2 kmh 29.99 in1015.6 mb 0.00 in0.0 mm 0.00 in0.0 mm 0.00 in0.0 mm
10:00 AM 70.8°F21.6°C 54.8°F12.7°C 57% 8.0 mph NE12.9 kmh NE 11.1 mph17.9 kmh 29.98 in1015.2 mb 0.00 in0.0 mm 0.00 in0.0 mm 0.00 in0.0 mm
11:00 AM 74.5°F23.6°C 55.7°F13.2°C 52% 2.0 mph WSW3.2 kmh WSW 3.0 mph4.8 kmh 29.98 in1015.2 mb 0.00 in0.0 mm 0.00 in0.0 mm 0.00 in0.0 mm
12:00 PM 75.5°F24.2°C 54.4°F12.4°C 48% 4.0 mph WNW6.4 kmh WNW 9.1 mph14.6 kmh 29.99 in1015.6 mb 0.00 in0.0 mm 0.00 in0.0 mm 0.00 in0.0 mm
01:00 PM 77.0°F25.0°C 56.4°F13.6°C 49% 2.0 mph NW3.2 kmh NW 3.0 mph4.8 kmh 30.00 in1015.9 mb 0.00 in0.0 mm 0.00 in0.0 mm 0.00 in0.0 mm
02:00 PM 77.1°F25.1°C 57.0°F13.9°C 50% 5.0 mph NNE8.0 kmh NNE 14.1 mph22.7 kmh 29.99 in1015.6 mb 0.00 in0.0 mm 0.00 in0.0 mm 0.00 in0.0 mm
03:00 PM 77.3°F25.2°C 56.1°F13.4°C 48% 5.0 mph NNE8.0 kmh NNE 8.1 mph13.0 kmh 29.98 in1015.2 mb 0.00 in0.0 mm 0.00 in0.0 mm 0.00 in0.0 mm
04:00 PM 77.0°F25.0°C 54.6°F12.6°C 46% 2.0 mph NNW3.2 kmh NNW 8.1 mph13.0 kmh 29.98 in1015.2 mb 0.00 in0.0 mm 0.00 in0.0 mm 0.00 in0.0 mm
05:00 PM 77.8°F25.4°C 52.9°F11.6°C 42% 5.0 mph NW8.0 kmh NW 8.1 mph13.0 kmh 29.99 in1015.6 mb 0.00 in0.0 mm 0.00 in0.0 mm 0.00 in0.0 mm
06:00 PM 76.1°F24.5°C 50.7°F10.4°C 41% 3.0 mph N4.8 kmh N 7.1 mph11.4 kmh 30.00 in1015.9 mb 0.00 in0.0 mm 0.00 in0.0 mm 0.00 in0.0 mm
07:00 PM 72.2°F22.3°C 48.5°F9.2°C 43% 4.0 mph N6.4 kmh N 5.1 mph8.2 kmh 30.01 in1016.3 mb 0.00 in0.0 mm 0.00 in0.0 mm 0.00 in0.0 mm
08:00 PM 69.4°F20.8°C 48.3°F9.1°C 47% 3.0 mph N4.8 kmh N 4.0 mph6.4 kmh 30.03 in1016.9 mb 0.00 in0.0 mm 0.00 in0.0 mm 0.00 in0.0 mm
09:00 PM 64.0°F17.8°C 47.5°F8.6°C 55% 1.0 mph N1.6 kmh N 1.0 mph1.6 kmh 30.04 in1017.3 mb 0.00 in0.0 mm 0.00 in0.0 mm 0.00 in0.0 mm
10:00 PM 60.5°F15.8°C 48.7°F9.3°C 65% Calm Calm 1.0 mph1.6 kmh 30.07 in1018.3 mb 0.00 in0.0 mm 0.00 in0.0 mm 0.00 in0.0 mm
11:00 PM 58.1°F14.5°C 48.8°F9.3°C 71% 1.0 mph N1.6 kmh N 1.0 mph1.6 kmh 30.10 in1019.3 mb 0.00 in0.0 mm 0.00 in0.0 mm 0.00 in0.0 mm